sensor_id;sensor_type;location;lat;lon;timestamp;temperature;humidity
53844;DHT22;39744;53.314;5.710;2022-12-20T00:01:16;8.10;99.90
53844;DHT22;39744;53.314;5.710;2022-12-20T00:03:43;8.10;99.90
53844;DHT22;39744;53.314;5.710;2022-12-20T00:06:09;8.10;99.90
53844;DHT22;39744;53.314;5.710;2022-12-20T00:08:36;8.20;99.90
53844;DHT22;39744;53.314;5.710;2022-12-20T00:11:04;8.10;99.90
53844;DHT22;39744;53.314;5.710;2022-12-20T00:13:30;8.10;99.90
53844;DHT22;39744;53.314;5.710;2022-12-20T00:16:08;8.10;99.90
53844;DHT22;39744;53.314;5.710;2022-12-20T00:18:35;8.20;99.90
53844;DHT22;39744;53.314;5.710;2022-12-20T00:21:03;8.10;99.90
53844;DHT22;39744;53.314;5.710;2022-12-20T00:23:30;8.50;99.90
53844;DHT22;39744;53.314;5.710;2022-12-20T00:26:13;8.20;99.90
53844;DHT22;39744;53.314;5.710;2022-12-20T00:28:39;8.20;99.90
53844;DHT22;39744;53.314;5.710;2022-12-20T00:31:06;8.20;99.90
53844;DHT22;39744;53.314;5.710;2022-12-20T00:33:33;8.20;99.90
53844;DHT22;39744;53.314;5.710;2022-12-20T00:35:59;8.20;99.90
53844;DHT22;39744;53.314;5.710;2022-12-20T00:38:25;8.20;99.90
53844;DHT22;39744;53.314;5.710;2022-12-20T00:41:09;8.20;99.90
53844;DHT22;39744;53.314;5.710;2022-12-20T00:43:35;8.20;99.90
53844;DHT22;39744;53.314;5.710;2022-12-20T00:46:02;8.30;99.90
53844;DHT22;39744;53.314;5.710;2022-12-20T00:48:29;8.30;99.90
53844;DHT22;39744;53.314;5.710;2022-12-20T00:51:05;8.30;99.90
53844;DHT22;39744;53.314;5.710;2022-12-20T00:53:32;8.30;99.90
53844;DHT22;39744;53.314;5.710;2022-12-20T00:55:58;8.20;99.90
53844;DHT22;39744;53.314;5.710;2022-12-20T00:58:24;8.30;99.90
53844;DHT22;39744;53.314;5.710;2022-12-20T01:00:50;8.20;99.90
53844;DHT22;39744;53.314;5.710;2022-12-20T01:03:16;8.30;99.90
53844;DHT22;39744;53.314;5.710;2022-12-20T01:05:51;8.20;99.90
53844;DHT22;39744;53.314;5.710;2022-12-20T01:08:17;8.30;99.90
53844;DHT22;39744;53.314;5.710;2022-12-20T01:10:43;8.30;99.90
53844;DHT22;39744;53.314;5.710;2022-12-20T01:13:09;8.30;99.90
53844;DHT22;39744;53.314;5.710;2022-12-20T01:15:35;8.30;99.90
53844;DHT22;39744;53.314;5.710;2022-12-20T01:18:00;8.30;99.90
53844;DHT22;39744;53.314;5.710;2022-12-20T01:20:26;8.30;99.90
53844;DHT22;39744;53.314;5.710;2022-12-20T01:22:51;8.10;99.90
53844;DHT22;39744;53.314;5.710;2022-12-20T01:25:17;8.30;99.90
53844;DHT22;39744;53.314;5.710;2022-12-20T01:27:43;8.30;99.90
53844;DHT22;39744;53.314;5.710;2022-12-20T01:30:09;8.30;99.90
53844;DHT22;39744;53.314;5.710;2022-12-20T01:32:34;8.30;99.90
53844;DHT22;39744;53.314;5.710;2022-12-20T01:35:00;8.30;99.90
53844;DHT22;39744;53.314;5.710;2022-12-20T01:37:26;8.20;99.90
53844;DHT22;39744;53.314;5.710;2022-12-20T01:39:51;8.30;99.90
53844;DHT22;39744;53.314;5.710;2022-12-20T01:42:17;8.30;99.90
53844;DHT22;39744;53.314;5.710;2022-12-20T01:47:09;8.20;99.90
53844;DHT22;39744;53.314;5.710;2022-12-20T01:49:41;8.20;99.90
53844;DHT22;39744;53.314;5.710;2022-12-20T01:52:14;8.30;99.90
53844;DHT22;39744;53.314;5.710;2022-12-20T01:54:42;8.20;99.90
53844;DHT22;39744;53.314;5.710;2022-12-20T01:57:13;8.20;99.90
53844;DHT22;39744;53.314;5.710;2022-12-20T01:59:42;8.20;99.90
53844;DHT22;39744;53.314;5.710;2022-12-20T02:02:10;8.20;99.90
53844;DHT22;39744;53.314;5.710;2022-12-20T02:04:36;8.20;99.90
53844;DHT22;39744;53.314;5.710;2022-12-20T02:07:02;8.20;99.90
53844;DHT22;39744;53.314;5.710;2022-12-20T02:09:29;8.20;99.90
53844;DHT22;39744;53.314;5.710;2022-12-20T02:12:07;8.20;99.90
53844;DHT22;39744;53.314;5.710;2022-12-20T02:14:57;8.20;99.90
53844;DHT22;39744;53.314;5.710;2022-12-20T02:26:18;8.20;99.90
53844;DHT22;39744;53.314;5.710;2022-12-20T02:29:10;8.10;99.90
53844;DHT22;39744;53.314;5.710;2022-12-20T02:32:34;8.10;99.90
53844;DHT22;39744;53.314;5.710;2022-12-20T02:34:41;8.10;99.90
53844;DHT22;39744;53.314;5.710;2022-12-20T02:37:08;8.10;99.90
53844;DHT22;39744;53.314;5.710;2022-12-20T02:39:35;8.00;99.90
53844;DHT22;39744;53.314;5.710;2022-12-20T02:42:08;8.10;99.90
53844;DHT22;39744;53.314;5.710;2022-12-20T02:44:44;8.00;99.90
53844;DHT22;39744;53.314;5.710;2022-12-20T02:47:33;8.00;99.90
53844;DHT22;39744;53.314;5.710;2022-12-20T02:50:02;8.00;99.90
53844;DHT22;39744;53.314;5.710;2022-12-20T02:52:29;8.00;99.90
53844;DHT22;39744;53.314;5.710;2022-12-20T02:54:56;7.90;99.90
53844;DHT22;39744;53.314;5.710;2022-12-20T02:57:33;7.90;99.90
53844;DHT22;39744;53.314;5.710;2022-12-20T03:00:18;7.90;99.90
53844;DHT22;39744;53.314;5.710;2022-12-20T03:02:45;7.90;99.90
53844;DHT22;39744;53.314;5.710;2022-12-20T03:05:31;7.90;99.90
53844;DHT22;39744;53.314;5.710;2022-12-20T03:08:00;8.00;99.90
53844;DHT22;39744;53.314;5.710;2022-12-20T03:10:26;7.90;99.90
53844;DHT22;39744;53.314;5.710;2022-12-20T03:12:52;8.00;99.90
53844;DHT22;39744;53.314;5.710;2022-12-20T03:15:17;8.00;99.90
53844;DHT22;39744;53.314;5.710;2022-12-20T03:17:43;8.00;99.90
53844;DHT22;39744;53.314;5.710;2022-12-20T03:20:09;8.00;99.90
53844;DHT22;39744;53.314;5.710;2022-12-20T03:22:35;8.10;99.90
53844;DHT22;39744;53.314;5.710;2022-12-20T03:25:01;8.10;99.90
53844;DHT22;39744;53.314;5.710;2022-12-20T03:27:27;7.80;99.90
53844;DHT22;39744;53.314;5.710;2022-12-20T03:29:54;8.00;99.90
53844;DHT22;39744;53.314;5.710;2022-12-20T03:32:20;8.00;99.90
53844;DHT22;39744;53.314;5.710;2022-12-20T03:34:46;8.10;99.90
53844;DHT22;39744;53.314;5.710;2022-12-20T03:37:11;8.10;99.90
53844;DHT22;39744;53.314;5.710;2022-12-20T03:39:37;8.20;99.90
53844;DHT22;39744;53.314;5.710;2022-12-20T03:42:03;8.20;99.90
53844;DHT22;39744;53.314;5.710;2022-12-20T03:44:28;8.20;99.90
53844;DHT22;39744;53.314;5.710;2022-12-20T03:46:54;8.20;99.90
53844;DHT22;39744;53.314;5.710;2022-12-20T03:49:19;8.30;99.90
53844;DHT22;39744;53.314;5.710;2022-12-20T03:51:45;8.20;99.90
53844;DHT22;39744;53.314;5.710;2022-12-20T03:54:11;8.30;99.90
53844;DHT22;39744;53.314;5.710;2022-12-20T03:56:36;8.30;99.90
53844;DHT22;39744;53.314;5.710;2022-12-20T03:59:02;8.40;99.90
53844;DHT22;39744;53.314;5.710;2022-12-20T04:01:28;8.40;99.90
53844;DHT22;39744;53.314;5.710;2022-12-20T04:03:55;8.40;99.90
53844;DHT22;39744;53.314;5.710;2022-12-20T04:06:21;8.40;99.90
53844;DHT22;39744;53.314;5.710;2022-12-20T04:08:48;8.50;99.90
53844;DHT22;39744;53.314;5.710;2022-12-20T04:11:14;8.40;99.90
53844;DHT22;39744;53.314;5.710;2022-12-20T04:13:45;8.50;99.90
53844;DHT22;39744;53.314;5.710;2022-12-20T04:16:13;8.60;99.90
53844;DHT22;39744;53.314;5.710;2022-12-20T04:18:39;8.50;99.90
53844;DHT22;39744;53.314;5.710;2022-12-20T04:21:05;8.60;99.90
53844;DHT22;39744;53.314;5.710;2022-12-20T04:23:35;8.50;99.90
53844;DHT22;39744;53.314;5.710;2022-12-20T04:26:02;8.40;99.90
53844;DHT22;39744;53.314;5.710;2022-12-20T04:28:28;8.60;99.90
53844;DHT22;39744;53.314;5.710;2022-12-20T04:30:54;8.60;99.90
53844;DHT22;39744;53.314;5.710;2022-12-20T04:33:20;8.70;99.90
53844;DHT22;39744;53.314;5.710;2022-12-20T04:35:46;8.60;99.90
53844;DHT22;39744;53.314;5.710;2022-12-20T04:38:12;8.70;99.90
53844;DHT22;39744;53.314;5.710;2022-12-20T04:40:37;8.60;99.90
53844;DHT22;39744;53.314;5.710;2022-12-20T04:43:03;9.00;99.90
53844;DHT22;39744;53.314;5.710;2022-12-20T04:45:28;8.70;99.90
53844;DHT22;39744;53.314;5.710;2022-12-20T04:47:54;8.70;99.90
53844;DHT22;39744;53.314;5.710;2022-12-20T04:50:20;8.70;99.90
53844;DHT22;39744;53.314;5.710;2022-12-20T04:52:45;8.70;99.90
53844;DHT22;39744;53.314;5.710;2022-12-20T04:55:29;8.70;99.90
53844;DHT22;39744;53.314;5.710;2022-12-20T04:57:55;9.10;99.90
53844;DHT22;39744;53.314;5.710;2022-12-20T05:00:21;8.60;99.90
53844;DHT22;39744;53.314;5.710;2022-12-20T05:02:46;8.80;99.90
53844;DHT22;39744;53.314;5.710;2022-12-20T05:05:12;8.60;99.90
53844;DHT22;39744;53.314;5.710;2022-12-20T05:07:38;9.20;99.90
53844;DHT22;39744;53.314;5.710;2022-12-20T05:10:04;8.80;99.90
53844;DHT22;39744;53.314;5.710;2022-12-20T05:12:30;8.80;99.90
53844;DHT22;39744;53.314;5.710;2022-12-20T05:14:56;8.80;99.90
53844;DHT22;39744;53.314;5.710;2022-12-20T05:17:21;8.70;99.90
53844;DHT22;39744;53.314;5.710;2022-12-20T05:19:47;8.50;99.90
53844;DHT22;39744;53.314;5.710;2022-12-20T05:22:12;8.80;99.90
53844;DHT22;39744;53.314;5.710;2022-12-20T05:24:57;8.90;99.90
53844;DHT22;39744;53.314;5.710;2022-12-20T05:27:41;8.90;99.90
53844;DHT22;39744;53.314;5.710;2022-12-20T05:30:07;8.90;99.90
53844;DHT22;39744;53.314;5.710;2022-12-20T05:32:33;8.90;99.90
53844;DHT22;39744;53.314;5.710;2022-12-20T05:34:59;8.90;99.90
53844;DHT22;39744;53.314;5.710;2022-12-20T05:37:24;8.90;99.90
53844;DHT22;39744;53.314;5.710;2022-12-20T05:39:50;8.90;99.90
53844;DHT22;39744;53.314;5.710;2022-12-20T05:42:16;9.30;99.90
53844;DHT22;39744;53.314;5.710;2022-12-20T05:44:41;8.80;99.90
53844;DHT22;39744;53.314;5.710;2022-12-20T05:47:07;8.90;99.90
53844;DHT22;39744;53.314;5.710;2022-12-20T05:49:32;8.90;99.90
53844;DHT22;39744;53.314;5.710;2022-12-20T05:51:59;8.80;99.90
53844;DHT22;39744;53.314;5.710;2022-12-20T05:54:25;9.00;99.90
53844;DHT22;39744;53.314;5.710;2022-12-20T05:56:50;9.00;99.90
53844;DHT22;39744;53.314;5.710;2022-12-20T05:59:16;8.90;99.90
53844;DHT22;39744;53.314;5.710;2022-12-20T06:01:43;9.00;99.90
53844;DHT22;39744;53.314;5.710;2022-12-20T06:04:08;9.00;99.90
53844;DHT22;39744;53.314;5.710;2022-12-20T06:06:34;9.00;99.90
53844;DHT22;39744;53.314;5.710;2022-12-20T06:08:59;9.10;99.90
53844;DHT22;39744;53.314;5.710;2022-12-20T06:11:25;9.00;99.90
53844;DHT22;39744;53.314;5.710;2022-12-20T06:13:51;9.00;99.90
53844;DHT22;39744;53.314;5.710;2022-12-20T06:16:17;8.90;99.90
53844;DHT22;39744;53.314;5.710;2022-12-20T06:18:45;9.00;99.90
53844;DHT22;39744;53.314;5.710;2022-12-20T06:21:11;9.00;99.90
53844;DHT22;39744;53.314;5.710;2022-12-20T06:23:36;9.00;99.90
53844;DHT22;39744;53.314;5.710;2022-12-20T06:26:02;9.00;99.90
53844;DHT22;39744;53.314;5.710;2022-12-20T06:28:29;8.90;99.90
53844;DHT22;39744;53.314;5.710;2022-12-20T06:30:56;9.00;99.90
53844;DHT22;39744;53.314;5.710;2022-12-20T06:33:22;9.10;99.90
53844;DHT22;39744;53.314;5.710;2022-12-20T06:35:51;9.10;99.90
53844;DHT22;39744;53.314;5.710;2022-12-20T06:38:17;9.10;99.90
53844;DHT22;39744;53.314;5.710;2022-12-20T06:40:43;9.10;99.90
53844;DHT22;39744;53.314;5.710;2022-12-20T06:43:09;9.10;99.90
53844;DHT22;39744;53.314;5.710;2022-12-20T06:45:34;9.00;99.90
53844;DHT22;39744;53.314;5.710;2022-12-20T06:48:00;9.00;99.90
53844;DHT22;39744;53.314;5.710;2022-12-20T06:50:26;8.90;99.90
53844;DHT22;39744;53.314;5.710;2022-12-20T06:52:52;9.00;99.90
53844;DHT22;39744;53.314;5.710;2022-12-20T06:55:17;8.80;99.90
53844;DHT22;39744;53.314;5.710;2022-12-20T06:57:43;8.60;99.90
53844;DHT22;39744;53.314;5.710;2022-12-20T07:00:09;9.00;99.90
53844;DHT22;39744;53.314;5.710;2022-12-20T07:02:37;9.20;99.90
53844;DHT22;39744;53.314;5.710;2022-12-20T07:05:03;8.60;99.90
53844;DHT22;39744;53.314;5.710;2022-12-20T07:07:29;9.20;99.90
53844;DHT22;39744;53.314;5.710;2022-12-20T07:09:55;8.70;99.90
53844;DHT22;39744;53.314;5.710;2022-12-20T07:12:21;9.00;99.90
53844;DHT22;39744;53.314;5.710;2022-12-20T07:14:47;8.90;99.90
53844;DHT22;39744;53.314;5.710;2022-12-20T07:17:13;8.90;99.90
53844;DHT22;39744;53.314;5.710;2022-12-20T07:19:40;10.60;99.90
53844;DHT22;39744;53.314;5.710;2022-12-20T07:22:06;8.90;99.90
53844;DHT22;39744;53.314;5.710;2022-12-20T07:24:32;8.80;99.90
53844;DHT22;39744;53.314;5.710;2022-12-20T07:26:59;9.00;99.90
53844;DHT22;39744;53.314;5.710;2022-12-20T07:29:24;8.80;99.90
53844;DHT22;39744;53.314;5.710;2022-12-20T07:31:51;9.10;99.90
53844;DHT22;39744;53.314;5.710;2022-12-20T07:34:17;8.90;99.90
53844;DHT22;39744;53.314;5.710;2022-12-20T07:36:43;8.90;99.90
53844;DHT22;39744;53.314;5.710;2022-12-20T07:39:09;10.70;99.90
53844;DHT22;39744;53.314;5.710;2022-12-20T07:41:35;8.80;99.90
53844;DHT22;39744;53.314;5.710;2022-12-20T07:44:00;9.00;99.90
53844;DHT22;39744;53.314;5.710;2022-12-20T07:46:26;9.00;99.90
53844;DHT22;39744;53.314;5.710;2022-12-20T07:48:52;9.10;99.90
53844;DHT22;39744;53.314;5.710;2022-12-20T07:51:22;9.00;99.90
53844;DHT22;39744;53.314;5.710;2022-12-20T07:53:51;9.00;99.90
53844;DHT22;39744;53.314;5.710;2022-12-20T07:56:20;9.10;99.90
53844;DHT22;39744;53.314;5.710;2022-12-20T07:58:47;9.00;99.90
53844;DHT22;39744;53.314;5.710;2022-12-20T08:01:15;9.10;99.90
53844;DHT22;39744;53.314;5.710;2022-12-20T08:03:47;9.10;99.90
53844;DHT22;39744;53.314;5.710;2022-12-20T08:06:14;9.30;99.90
53844;DHT22;39744;53.314;5.710;2022-12-20T08:08:46;9.20;99.90
53844;DHT22;39744;53.314;5.710;2022-12-20T08:11:13;8.90;99.90
53844;DHT22;39744;53.314;5.710;2022-12-20T08:13:39;9.20;99.90
53844;DHT22;39744;53.314;5.710;2022-12-20T08:16:06;9.20;99.90
53844;DHT22;39744;53.314;5.710;2022-12-20T08:18:31;9.30;99.90
53844;DHT22;39744;53.314;5.710;2022-12-20T08:20:57;9.10;99.90
53844;DHT22;39744;53.314;5.710;2022-12-20T08:23:23;9.20;99.90
53844;DHT22;39744;53.314;5.710;2022-12-20T08:25:48;9.40;99.90
53844;DHT22;39744;53.314;5.710;2022-12-20T08:28:14;9.20;99.90
53844;DHT22;39744;53.314;5.710;2022-12-20T08:30:40;9.00;99.90
53844;DHT22;39744;53.314;5.710;2022-12-20T08:33:06;9.10;99.90
53844;DHT22;39744;53.314;5.710;2022-12-20T08:35:32;9.10;99.90
53844;DHT22;39744;53.314;5.710;2022-12-20T08:37:58;9.10;99.90
53844;DHT22;39744;53.314;5.710;2022-12-20T08:40:24;9.10;99.90
53844;DHT22;39744;53.314;5.710;2022-12-20T08:42:49;8.80;99.90
53844;DHT22;39744;53.314;5.710;2022-12-20T08:45:15;9.00;99.90
53844;DHT22;39744;53.314;5.710;2022-12-20T08:47:41;9.80;99.90
53844;DHT22;39744;53.314;5.710;2022-12-20T08:50:07;9.20;99.90
53844;DHT22;39744;53.314;5.710;2022-12-20T08:52:33;9.50;99.90
53844;DHT22;39744;53.314;5.710;2022-12-20T08:54:58;9.30;99.90
53844;DHT22;39744;53.314;5.710;2022-12-20T08:57:24;9.50;99.90
53844;DHT22;39744;53.314;5.710;2022-12-20T08:59:49;9.30;99.90
53844;DHT22;39744;53.314;5.710;2022-12-20T09:02:15;9.50;99.90
53844;DHT22;39744;53.314;5.710;2022-12-20T09:04:41;9.50;99.90
53844;DHT22;39744;53.314;5.710;2022-12-20T09:07:08;9.60;99.90
53844;DHT22;39744;53.314;5.710;2022-12-20T09:09:35;9.60;99.90
53844;DHT22;39744;53.314;5.710;2022-12-20T09:12:00;9.60;99.90
53844;DHT22;39744;53.314;5.710;2022-12-20T09:14:26;9.60;99.90
53844;DHT22;39744;53.314;5.710;2022-12-20T09:16:52;9.60;99.90
53844;DHT22;39744;53.314;5.710;2022-12-20T09:19:17;9.60;99.90
53844;DHT22;39744;53.314;5.710;2022-12-20T09:21:43;9.70;99.90
53844;DHT22;39744;53.314;5.710;2022-12-20T09:24:09;9.60;99.90
53844;DHT22;39744;53.314;5.710;2022-12-20T09:26:35;9.70;99.90
53844;DHT22;39744;53.314;5.710;2022-12-20T09:29:01;9.70;99.90
53844;DHT22;39744;53.314;5.710;2022-12-20T09:31:27;9.70;99.90
53844;DHT22;39744;53.314;5.710;2022-12-20T09:33:54;9.70;99.90
53844;DHT22;39744;53.314;5.710;2022-12-20T09:36:22;9.80;99.90
53844;DHT22;39744;53.314;5.710;2022-12-20T09:38:48;9.80;99.90
53844;DHT22;39744;53.314;5.710;2022-12-20T09:41:38;9.70;99.90
53844;DHT22;39744;53.314;5.710;2022-12-20T09:44:15;9.80;99.90
53844;DHT22;39744;53.314;5.710;2022-12-20T09:46:43;9.80;99.90
53844;DHT22;39744;53.314;5.710;2022-12-20T09:49:14;9.80;99.90
53844;DHT22;39744;53.314;5.710;2022-12-20T09:52:07;9.80;99.90
53844;DHT22;39744;53.314;5.710;2022-12-20T09:57:47;9.80;99.90
53844;DHT22;39744;53.314;5.710;2022-12-20T10:00:17;9.80;99.90
53844;DHT22;39744;53.314;5.710;2022-12-20T10:02:43;9.70;99.90
53844;DHT22;39744;53.314;5.710;2022-12-20T10:11:07;9.80;99.90
53844;DHT22;39744;53.314;5.710;2022-12-20T10:14:10;9.80;99.90
53844;DHT22;39744;53.314;5.710;2022-12-20T10:16:45;9.70;99.90
53844;DHT22;39744;53.314;5.710;2022-12-20T10:24:36;9.70;99.90
53844;DHT22;39744;53.314;5.710;2022-12-20T10:27:15;9.60;99.90
53844;DHT22;39744;53.314;5.710;2022-12-20T10:29:42;9.60;99.90
53844;DHT22;39744;53.314;5.710;2022-12-20T10:32:15;9.60;99.90
53844;DHT22;39744;53.314;5.710;2022-12-20T10:35:10;9.70;99.90
53844;DHT22;39744;53.314;5.710;2022-12-20T10:38:00;9.70;99.90
53844;DHT22;39744;53.314;5.710;2022-12-20T10:40:31;9.60;99.90
53844;DHT22;39744;53.314;5.710;2022-12-20T10:42:57;9.60;99.90
53844;DHT22;39744;53.314;5.710;2022-12-20T10:45:36;9.60;99.90
53844;DHT22;39744;53.314;5.710;2022-12-20T10:48:43;9.60;99.90
53844;DHT22;39744;53.314;5.710;2022-12-20T10:54:03;9.50;99.90
53844;DHT22;39744;53.314;5.710;2022-12-20T10:56:39;9.50;99.90
53844;DHT22;39744;53.314;5.710;2022-12-20T11:01:43;9.50;99.90
53844;DHT22;39744;53.314;5.710;2022-12-20T11:04:34;9.50;99.90
53844;DHT22;39744;53.314;5.710;2022-12-20T11:07:03;9.50;99.90
53844;DHT22;39744;53.314;5.710;2022-12-20T11:09:53;9.40;99.90
53844;DHT22;39744;53.314;5.710;2022-12-20T11:12:19;9.40;99.90
53844;DHT22;39744;53.314;5.710;2022-12-20T11:14:46;9.40;99.90
53844;DHT22;39744;53.314;5.710;2022-12-20T11:17:29;9.40;99.90
53844;DHT22;39744;53.314;5.710;2022-12-20T11:20:10;9.40;99.90
53844;DHT22;39744;53.314;5.710;2022-12-20T11:30:47;9.40;99.90
53844;DHT22;39744;53.314;5.710;2022-12-20T11:33:34;9.40;99.90
53844;DHT22;39744;53.314;5.710;2022-12-20T11:36:22;9.40;99.90
53844;DHT22;39744;53.314;5.710;2022-12-20T11:39:14;9.40;99.90
53844;DHT22;39744;53.314;5.710;2022-12-20T11:41:46;9.40;99.90
53844;DHT22;39744;53.314;5.710;2022-12-20T11:44:31;9.40;99.90
53844;DHT22;39744;53.314;5.710;2022-12-20T11:52:54;9.40;99.90
53844;DHT22;39744;53.314;5.710;2022-12-20T11:55:33;9.30;99.90
53844;DHT22;39744;53.314;5.710;2022-12-20T11:58:10;9.30;99.90
53844;DHT22;39744;53.314;5.710;2022-12-20T12:00:39;9.40;99.90
53844;DHT22;39744;53.314;5.710;2022-12-20T12:03:18;9.30;99.90
53844;DHT22;39744;53.314;5.710;2022-12-20T12:05:50;9.30;99.90
53844;DHT22;39744;53.314;5.710;2022-12-20T12:08:24;9.30;99.90
53844;DHT22;39744;53.314;5.710;2022-12-20T12:11:13;9.30;99.90
53844;DHT22;39744;53.314;5.710;2022-12-20T12:13:42;9.50;99.90
53844;DHT22;39744;53.314;5.710;2022-12-20T12:16:19;9.30;99.90
53844;DHT22;39744;53.314;5.710;2022-12-20T12:18:45;9.20;99.90
53844;DHT22;39744;53.314;5.710;2022-12-20T12:21:23;9.30;99.90
53844;DHT22;39744;53.314;5.710;2022-12-20T12:24:12;9.30;99.90
53844;DHT22;39744;53.314;5.710;2022-12-20T12:26:43;9.30;99.90
53844;DHT22;39744;53.314;5.710;2022-12-20T12:31:41;9.30;99.90
53844;DHT22;39744;53.314;5.710;2022-12-20T12:37:19;9.30;99.90
53844;DHT22;39744;53.314;5.710;2022-12-20T12:45:39;9.30;99.90
53844;DHT22;39744;53.314;5.710;2022-12-20T12:48:20;9.20;99.90
53844;DHT22;39744;53.314;5.710;2022-12-20T12:50:52;9.30;99.90
53844;DHT22;39744;53.314;5.710;2022-12-20T13:09:38;9.20;99.90
53844;DHT22;39744;53.314;5.710;2022-12-20T13:17:50;9.20;99.90
53844;DHT22;39744;53.314;5.710;2022-12-20T13:20:26;9.20;99.90
53844;DHT22;39744;53.314;5.710;2022-12-20T13:25:47;9.10;99.90
53844;DHT22;39744;53.314;5.710;2022-12-20T13:33:45;9.10;99.90
53844;DHT22;39744;53.314;5.710;2022-12-20T13:41:19;8.90;99.90
53844;DHT22;39744;53.314;5.710;2022-12-20T13:43:47;9.10;99.90
53844;DHT22;39744;53.314;5.710;2022-12-20T13:46:20;9.10;99.90
53844;DHT22;39744;53.314;5.710;2022-12-20T13:49:02;9.20;99.90
53844;DHT22;39744;53.314;5.710;2022-12-20T13:51:29;9.20;99.90
53844;DHT22;39744;53.314;5.710;2022-12-20T13:53:57;9.20;99.90
53844;DHT22;39744;53.314;5.710;2022-12-20T13:58:57;9.20;99.90
53844;DHT22;39744;53.314;5.710;2022-12-20T14:01:24;9.30;99.90
53844;DHT22;39744;53.314;5.710;2022-12-20T14:03:51;9.30;99.90
53844;DHT22;39744;53.314;5.710;2022-12-20T14:06:19;9.30;99.90
53844;DHT22;39744;53.314;5.710;2022-12-20T14:08:50;9.70;99.90
53844;DHT22;39744;53.314;5.710;2022-12-20T14:11:22;9.40;99.90
53844;DHT22;39744;53.314;5.710;2022-12-20T14:13:55;9.40;99.90
53844;DHT22;39744;53.314;5.710;2022-12-20T14:16:22;9.30;99.90
53844;DHT22;39744;53.314;5.710;2022-12-20T14:19:02;9.40;99.90
53844;DHT22;39744;53.314;5.710;2022-12-20T14:21:28;9.40;99.90
53844;DHT22;39744;53.314;5.710;2022-12-20T14:23:56;9.40;99.90
53844;DHT22;39744;53.314;5.710;2022-12-20T14:26:42;9.40;99.90
53844;DHT22;39744;53.314;5.710;2022-12-20T14:29:11;9.40;99.90
53844;DHT22;39744;53.314;5.710;2022-12-20T14:31:41;9.40;99.90
53844;DHT22;39744;53.314;5.710;2022-12-20T14:36:47;9.40;99.90
53844;DHT22;39744;53.314;5.710;2022-12-20T14:39:25;9.40;99.90
53844;DHT22;39744;53.314;5.710;2022-12-20T14:42:20;9.40;99.90
53844;DHT22;39744;53.314;5.710;2022-12-20T14:44:46;9.50;99.90
53844;DHT22;39744;53.314;5.710;2022-12-20T14:47:24;9.40;99.90
53844;DHT22;39744;53.314;5.710;2022-12-20T14:50:02;9.40;99.90
53844;DHT22;39744;53.314;5.710;2022-12-20T14:52:38;9.40;99.90
53844;DHT22;39744;53.314;5.710;2022-12-20T14:55:16;9.40;99.90
53844;DHT22;39744;53.314;5.710;2022-12-20T14:57:54;9.40;99.90
53844;DHT22;39744;53.314;5.710;2022-12-20T15:03:10;9.40;99.90
53844;DHT22;39744;53.314;5.710;2022-12-20T15:05:46;9.40;99.90
53844;DHT22;39744;53.314;5.710;2022-12-20T15:08:22;9.40;99.90
53844;DHT22;39744;53.314;5.710;2022-12-20T15:10:56;9.40;99.90
53844;DHT22;39744;53.314;5.710;2022-12-20T15:16:24;9.30;99.90
53844;DHT22;39744;53.314;5.710;2022-12-20T15:18:56;9.30;99.90
53844;DHT22;39744;53.314;5.710;2022-12-20T15:21:30;9.30;99.90
53844;DHT22;39744;53.314;5.710;2022-12-20T15:23:59;9.20;99.90
53844;DHT22;39744;53.314;5.710;2022-12-20T15:26:26;8.80;99.90
53844;DHT22;39744;53.314;5.710;2022-12-20T15:28:53;9.20;99.90
53844;DHT22;39744;53.314;5.710;2022-12-20T15:31:20;9.20;99.90
53844;DHT22;39744;53.314;5.710;2022-12-20T15:33:46;9.10;99.90
53844;DHT22;39744;53.314;5.710;2022-12-20T15:36:20;9.10;99.90
53844;DHT22;39744;53.314;5.710;2022-12-20T15:38:47;9.10;99.90
53844;DHT22;39744;53.314;5.710;2022-12-20T15:41:25;8.40;99.90
53844;DHT22;39744;53.314;5.710;2022-12-20T15:43:54;9.10;99.90
53844;DHT22;39744;53.314;5.710;2022-12-20T15:46:20;9.00;99.90
53844;DHT22;39744;53.314;5.710;2022-12-20T15:48:45;9.00;99.90
53844;DHT22;39744;53.314;5.710;2022-12-20T15:51:17;9.00;99.90
53844;DHT22;39744;53.314;5.710;2022-12-20T15:53:46;8.90;99.90
53844;DHT22;39744;53.314;5.710;2022-12-20T15:56:17;9.00;99.90
53844;DHT22;39744;53.314;5.710;2022-12-20T15:58:44;8.90;99.90
53844;DHT22;39744;53.314;5.710;2022-12-20T16:01:17;9.00;99.90
53844;DHT22;39744;53.314;5.710;2022-12-20T16:03:43;8.90;99.90
53844;DHT22;39744;53.314;5.710;2022-12-20T16:06:12;8.90;99.90
53844;DHT22;39744;53.314;5.710;2022-12-20T16:08:39;8.90;99.90
53844;DHT22;39744;53.314;5.710;2022-12-20T16:11:16;8.90;99.90
53844;DHT22;39744;53.314;5.710;2022-12-20T16:13:45;8.90;99.90
53844;DHT22;39744;53.314;5.710;2022-12-20T16:16:17;8.90;99.90
53844;DHT22;39744;53.314;5.710;2022-12-20T16:18:43;8.80;99.90
53844;DHT22;39744;53.314;5.710;2022-12-20T16:21:30;8.80;99.90
53844;DHT22;39744;53.314;5.710;2022-12-20T16:23:57;8.70;99.90
53844;DHT22;39744;53.314;5.710;2022-12-20T16:26:24;8.70;99.90
53844;DHT22;39744;53.314;5.710;2022-12-20T16:28:52;8.70;99.90
53844;DHT22;39744;53.314;5.710;2022-12-20T16:31:29;8.70;99.90
53844;DHT22;39744;53.314;5.710;2022-12-20T16:34:03;8.70;99.90
53844;DHT22;39744;53.314;5.710;2022-12-20T16:36:29;8.70;99.90
53844;DHT22;39744;53.314;5.710;2022-12-20T16:38:55;8.70;99.90
53844;DHT22;39744;53.314;5.710;2022-12-20T16:41:24;8.70;99.90
53844;DHT22;39744;53.314;5.710;2022-12-20T16:43:50;8.70;99.90
53844;DHT22;39744;53.314;5.710;2022-12-20T16:46:18;8.70;99.90
53844;DHT22;39744;53.314;5.710;2022-12-20T16:48:44;8.70;99.90
53844;DHT22;39744;53.314;5.710;2022-12-20T16:51:30;8.60;99.90
53844;DHT22;39744;53.314;5.710;2022-12-20T16:53:58;8.60;99.90
53844;DHT22;39744;53.314;5.710;2022-12-20T16:56:25;8.60;99.90
53844;DHT22;39744;53.314;5.710;2022-12-20T16:58:51;8.60;99.90
53844;DHT22;39744;53.314;5.710;2022-12-20T17:01:35;8.60;99.90
53844;DHT22;39744;53.314;5.710;2022-12-20T17:04:01;8.60;99.90
53844;DHT22;39744;53.314;5.710;2022-12-20T17:06:27;8.50;99.90
53844;DHT22;39744;53.314;5.710;2022-12-20T17:08:53;8.50;99.90
53844;DHT22;39744;53.314;5.710;2022-12-20T17:11:28;8.50;99.90
53844;DHT22;39744;53.314;5.710;2022-12-20T17:13:55;8.50;99.90
53844;DHT22;39744;53.314;5.710;2022-12-20T17:16:21;8.50;99.90
53844;DHT22;39744;53.314;5.710;2022-12-20T17:18:49;8.50;99.90
53844;DHT22;39744;53.314;5.710;2022-12-20T17:21:26;8.40;99.90
53844;DHT22;39744;53.314;5.710;2022-12-20T17:23:53;8.40;99.90
53844;DHT22;39744;53.314;5.710;2022-12-20T17:26:27;8.40;99.90
53844;DHT22;39744;53.314;5.710;2022-12-20T17:28:55;8.40;99.90
53844;DHT22;39744;53.314;5.710;2022-12-20T17:31:36;8.30;99.90
53844;DHT22;39744;53.314;5.710;2022-12-20T17:34:14;8.30;99.90
53844;DHT22;39744;53.314;5.710;2022-12-20T17:36:40;8.20;99.90
53844;DHT22;39744;53.314;5.710;2022-12-20T17:39:06;8.20;99.90
53844;DHT22;39744;53.314;5.710;2022-12-20T17:41:32;8.10;99.90
53844;DHT22;39744;53.314;5.710;2022-12-20T17:43:59;8.10;99.90